sensor_id;sensor_type;location;lat;lon;timestamp;pressure;altitude;pressure_sealevel;temperature;humidity
33506;BME280;19843;51.040;13.782;2022-12-29T00:00:18;99728.59;;;8.31;73.53
33506;BME280;19843;51.040;13.782;2022-12-29T00:02:47;99740.47;;;8.40;72.92
33506;BME280;19843;51.040;13.782;2022-12-29T00:05:15;99735.69;;;8.45;72.74
33506;BME280;19843;51.040;13.782;2022-12-29T00:07:42;99729.22;;;8.35;73.39
33506;BME280;19843;51.040;13.782;2022-12-29T00:10:10;99729.63;;;8.29;73.48
33506;BME280;19843;51.040;13.782;2022-12-29T00:12:37;99729.88;;;8.39;73.11
33506;BME280;19843;51.040;13.782;2022-12-29T00:15:22;99730.13;;;8.61;72.29
33506;BME280;19843;51.040;13.782;2022-12-29T00:18:06;99717.06;;;8.82;71.18
33506;BME280;19843;51.040;13.782;2022-12-29T00:20:34;99721.75;;;9.04;70.76
33506;BME280;19843;51.040;13.782;2022-12-29T00:23:20;99728.00;;;9.29;68.93
33506;BME280;19843;51.040;13.782;2022-12-29T00:26:12;99721.78;;;9.65;67.13
33506;BME280;19843;51.040;13.782;2022-12-29T00:28:58;99728.56;;;9.82;67.03
33506;BME280;19843;51.040;13.782;2022-12-29T00:31:43;99718.63;;;9.95;66.06
33506;BME280;19843;51.040;13.782;2022-12-29T00:34:29;99697.81;;;9.99;66.13
33506;BME280;19843;51.040;13.782;2022-12-29T00:37:15;99698.34;;;10.04;66.03
33506;BME280;19843;51.040;13.782;2022-12-29T00:39:43;99701.06;;;10.15;65.60
33506;BME280;19843;51.040;13.782;2022-12-29T00:42:24;99709.41;;;10.35;64.13
33506;BME280;19843;51.040;13.782;2022-12-29T00:45:09;99703.84;;;10.38;64.03
33506;BME280;19843;51.040;13.782;2022-12-29T00:47:36;99706.75;;;10.46;63.61
33506;BME280;19843;51.040;13.782;2022-12-29T00:50:06;99703.50;;;10.54;63.51
33506;BME280;19843;51.040;13.782;2022-12-29T00:52:32;99700.19;;;10.61;63.17
33506;BME280;19843;51.040;13.782;2022-12-29T00:55:00;99698.72;;;10.57;63.46
33506;BME280;19843;51.040;13.782;2022-12-29T00:57:27;99687.06;;;10.58;64.35
33506;BME280;19843;51.040;13.782;2022-12-29T00:59:54;99687.75;;;10.60;64.87
33506;BME280;19843;51.040;13.782;2022-12-29T01:02:22;99681.78;;;10.57;66.07
33506;BME280;19843;51.040;13.782;2022-12-29T01:04:49;99674.84;;;10.54;66.48
33506;BME280;19843;51.040;13.782;2022-12-29T01:07:18;99681.78;;;10.57;66.78
33506;BME280;19843;51.040;13.782;2022-12-29T01:09:45;99680.72;;;10.71;66.75
33506;BME280;19843;51.040;13.782;2022-12-29T01:12:32;99680.69;;;10.59;67.69
33506;BME280;19843;51.040;13.782;2022-12-29T01:15:13;99681.19;;;10.53;67.83
33506;BME280;19843;51.040;13.782;2022-12-29T01:17:40;99685.31;;;10.46;69.13
33506;BME280;19843;51.040;13.782;2022-12-29T01:20:09;99681.44;;;10.50;68.98
33506;BME280;19843;51.040;13.782;2022-12-29T01:22:38;99681.16;;;10.42;70.12
33506;BME280;19843;51.040;13.782;2022-12-29T01:25:06;99695.06;;;10.36;70.65
33506;BME280;19843;51.040;13.782;2022-12-29T01:27:34;99691.38;;;10.37;71.40
33506;BME280;19843;51.040;13.782;2022-12-29T01:30:02;99681.41;;;10.39;70.50
33506;BME280;19843;51.040;13.782;2022-12-29T01:32:29;99680.28;;;10.30;70.48
33506;BME280;19843;51.040;13.782;2022-12-29T01:34:57;99688.22;;;10.32;70.46
33506;BME280;19843;51.040;13.782;2022-12-29T01:37:25;99686.50;;;10.31;70.82
33506;BME280;19843;51.040;13.782;2022-12-29T01:39:53;99686.28;;;10.34;70.50
33506;BME280;19843;51.040;13.782;2022-12-29T01:42:23;99687.47;;;10.30;70.51
33506;BME280;19843;51.040;13.782;2022-12-29T01:44:53;99688.44;;;10.29;70.42
33506;BME280;19843;51.040;13.782;2022-12-29T01:47:30;99677.81;;;10.16;71.47
33506;BME280;19843;51.040;13.782;2022-12-29T01:50:03;99687.84;;;10.01;71.26
33506;BME280;19843;51.040;13.782;2022-12-29T01:52:35;99687.41;;;9.83;72.15
33506;BME280;19843;51.040;13.782;2022-12-29T01:55:07;99680.75;;;9.89;73.00
33506;BME280;19843;51.040;13.782;2022-12-29T01:57:38;99674.66;;;9.87;72.95
33506;BME280;19843;51.040;13.782;2022-12-29T02:00:09;99672.91;;;9.74;72.67
33506;BME280;19843;51.040;13.782;2022-12-29T02:02:37;99671.44;;;9.70;72.62
33506;BME280;19843;51.040;13.782;2022-12-29T02:05:07;99667.47;;;9.52;74.35
33506;BME280;19843;51.040;13.782;2022-12-29T02:07:37;99668.41;;;9.51;74.90
33506;BME280;19843;51.040;13.782;2022-12-29T02:10:07;99656.88;;;9.50;75.14
33506;BME280;19843;51.040;13.782;2022-12-29T02:12:34;99652.59;;;9.48;75.46
33506;BME280;19843;51.040;13.782;2022-12-29T02:15:04;99640.59;;;9.29;76.71
33506;BME280;19843;51.040;13.782;2022-12-29T02:17:42;99632.78;;;9.26;76.30
33506;BME280;19843;51.040;13.782;2022-12-29T02:20:41;99646.69;;;9.31;76.37
33506;BME280;19843;51.040;13.782;2022-12-29T02:23:46;99649.06;;;9.23;76.58
33506;BME280;19843;51.040;13.782;2022-12-29T02:26:48;99649.69;;;9.27;76.11
33506;BME280;19843;51.040;13.782;2022-12-29T02:29:32;99648.81;;;9.26;76.09
33506;BME280;19843;51.040;13.782;2022-12-29T02:32:07;99642.72;;;9.24;77.16
33506;BME280;19843;51.040;13.782;2022-12-29T02:34:47;99635.25;;;9.29;77.15
33506;BME280;19843;51.040;13.782;2022-12-29T02:37:22;99632.91;;;9.25;77.09
33506;BME280;19843;51.040;13.782;2022-12-29T02:39:56;99628.25;;;9.15;77.28
33506;BME280;19843;51.040;13.782;2022-12-29T02:42:33;99628.41;;;9.25;77.10
33506;BME280;19843;51.040;13.782;2022-12-29T02:45:06;99624.75;;;9.26;76.73
33506;BME280;19843;51.040;13.782;2022-12-29T02:47:41;99621.31;;;9.24;77.02
33506;BME280;19843;51.040;13.782;2022-12-29T02:50:15;99620.88;;;9.30;77.41
33506;BME280;19843;51.040;13.782;2022-12-29T02:52:49;99623.84;;;9.38;77.32
33506;BME280;19843;51.040;13.782;2022-12-29T02:55:18;99617.72;;;9.60;76.77
33506;BME280;19843;51.040;13.782;2022-12-29T02:57:44;99623.69;;;9.88;75.86
33506;BME280;19843;51.040;13.782;2022-12-29T03:00:14;99607.75;;;9.98;75.33
33506;BME280;19843;51.040;13.782;2022-12-29T03:03:07;99613.97;;;10.10;74.59
33506;BME280;19843;51.040;13.782;2022-12-29T03:05:45;99617.38;;;10.12;74.50
33506;BME280;19843;51.040;13.782;2022-12-29T03:08:23;99612.06;;;10.23;74.45
33506;BME280;19843;51.040;13.782;2022-12-29T03:10:59;99616.72;;;10.32;73.13
33506;BME280;19843;51.040;13.782;2022-12-29T03:13:30;99606.63;;;10.47;72.38
33506;BME280;19843;51.040;13.782;2022-12-29T03:16:21;99612.94;;;10.57;71.88
33506;BME280;19843;51.040;13.782;2022-12-29T03:18:57;99608.06;;;10.74;70.91
33506;BME280;19843;51.040;13.782;2022-12-29T03:21:32;99612.19;;;10.89;70.32
33506;BME280;19843;51.040;13.782;2022-12-29T03:24:20;99609.75;;;10.97;70.17
33506;BME280;19843;51.040;13.782;2022-12-29T03:26:50;99609.84;;;11.07;69.41
33506;BME280;19843;51.040;13.782;2022-12-29T03:29:19;99606.03;;;11.21;68.69
33506;BME280;19843;51.040;13.782;2022-12-29T03:31:48;99600.94;;;11.18;68.66
33506;BME280;19843;51.040;13.782;2022-12-29T03:34:20;99606.25;;;11.29;67.97
33506;BME280;19843;51.040;13.782;2022-12-29T03:36:53;99593.69;;;11.29;67.74
33506;BME280;19843;51.040;13.782;2022-12-29T03:39:23;99607.00;;;11.31;68.10
33506;BME280;19843;51.040;13.782;2022-12-29T03:41:57;99598.13;;;11.08;67.90
33506;BME280;19843;51.040;13.782;2022-12-29T03:44:31;99603.69;;;10.73;68.88
33506;BME280;19843;51.040;13.782;2022-12-29T03:46:59;99589.66;;;10.47;69.68
33506;BME280;19843;51.040;13.782;2022-12-29T03:49:28;99602.72;;;10.40;69.31
33506;BME280;19843;51.040;13.782;2022-12-29T03:51:55;99598.06;;;10.31;69.84
33506;BME280;19843;51.040;13.782;2022-12-29T03:54:22;99599.75;;;10.20;70.04
33506;BME280;19843;51.040;13.782;2022-12-29T03:56:50;99591.69;;;10.09;70.33
33506;BME280;19843;51.040;13.782;2022-12-29T03:59:17;99588.91;;;9.99;70.93
33506;BME280;19843;51.040;13.782;2022-12-29T04:01:45;99581.31;;;9.93;71.26
33506;BME280;19843;51.040;13.782;2022-12-29T04:04:13;99582.03;;;9.84;71.16
33506;BME280;19843;51.040;13.782;2022-12-29T04:06:41;99584.09;;;9.80;71.18
33506;BME280;19843;51.040;13.782;2022-12-29T04:09:09;99571.31;;;9.73;71.47
33506;BME280;19843;51.040;13.782;2022-12-29T04:11:37;99579.06;;;9.65;71.28
33506;BME280;19843;51.040;13.782;2022-12-29T04:14:04;99569.97;;;9.78;70.92
33506;BME280;19843;51.040;13.782;2022-12-29T04:16:32;99575.09;;;9.81;70.52
33506;BME280;19843;51.040;13.782;2022-12-29T04:19:01;99571.78;;;9.78;71.08
33506;BME280;19843;51.040;13.782;2022-12-29T04:21:29;99579.72;;;9.79;71.02
33506;BME280;19843;51.040;13.782;2022-12-29T04:23:57;99567.44;;;9.77;71.79
33506;BME280;19843;51.040;13.782;2022-12-29T04:26:25;99573.63;;;9.77;71.31
33506;BME280;19843;51.040;13.782;2022-12-29T04:28:53;99571.78;;;9.78;71.15
33506;BME280;19843;51.040;13.782;2022-12-29T04:31:20;99571.53;;;9.81;71.31
33506;BME280;19843;51.040;13.782;2022-12-29T04:33:48;99577.88;;;9.80;71.13
33506;BME280;19843;51.040;13.782;2022-12-29T04:36:15;99575.09;;;9.81;71.10
33506;BME280;19843;51.040;13.782;2022-12-29T04:38:44;99569.59;;;9.83;70.66
33506;BME280;19843;51.040;13.782;2022-12-29T04:41:12;99577.53;;;9.85;71.35
33506;BME280;19843;51.040;13.782;2022-12-29T04:43:40;99577.78;;;9.81;71.15
33506;BME280;19843;51.040;13.782;2022-12-29T04:46:07;99574.25;;;9.92;70.88
33506;BME280;19843;51.040;13.782;2022-12-29T04:48:34;99577.63;;;9.83;70.78
33506;BME280;19843;51.040;13.782;2022-12-29T04:51:02;99569.53;;;9.96;70.32
33506;BME280;19843;51.040;13.782;2022-12-29T04:53:29;99574.88;;;9.96;70.20
33506;BME280;19843;51.040;13.782;2022-12-29T04:55:57;99577.66;;;9.94;70.52
33506;BME280;19843;51.040;13.782;2022-12-29T04:58:25;99573.88;;;9.97;70.10
33506;BME280;19843;51.040;13.782;2022-12-29T05:00:53;99586.31;;;9.87;70.81
33506;BME280;19843;51.040;13.782;2022-12-29T05:03:20;99582.16;;;9.82;72.21
33506;BME280;19843;51.040;13.782;2022-12-29T05:05:48;99578.53;;;9.95;72.77
33506;BME280;19843;51.040;13.782;2022-12-29T05:08:15;99579.13;;;9.87;74.21
33506;BME280;19843;51.040;13.782;2022-12-29T05:10:46;99583.66;;;9.98;73.60
33506;BME280;19843;51.040;13.782;2022-12-29T05:13:13;99582.56;;;10.00;74.23
33506;BME280;19843;51.040;13.782;2022-12-29T05:15:46;99589.75;;;10.00;74.78
33506;BME280;19843;51.040;13.782;2022-12-29T05:18:14;99600.84;;;10.18;74.08
33506;BME280;19843;51.040;13.782;2022-12-29T05:20:44;99583.72;;;10.32;74.83
33506;BME280;19843;51.040;13.782;2022-12-29T05:23:11;99580.69;;;10.36;75.54
33506;BME280;19843;51.040;13.782;2022-12-29T05:25:39;99577.25;;;10.45;75.41
33506;BME280;19843;51.040;13.782;2022-12-29T05:28:06;99572.53;;;10.49;76.01
33506;BME280;19843;51.040;13.782;2022-12-29T05:30:34;99573.34;;;10.61;74.90
33506;BME280;19843;51.040;13.782;2022-12-29T05:33:03;99578.94;;;10.58;75.94
33506;BME280;19843;51.040;13.782;2022-12-29T05:35:32;99577.63;;;10.63;75.36
33506;BME280;19843;51.040;13.782;2022-12-29T05:38:00;99580.78;;;10.69;75.40
33506;BME280;19843;51.040;13.782;2022-12-29T05:40:27;99577.31;;;10.89;74.36
33506;BME280;19843;51.040;13.782;2022-12-29T05:42:55;99584.72;;;11.08;73.70
33506;BME280;19843;51.040;13.782;2022-12-29T05:45:22;99590.59;;;11.02;74.23
33506;BME280;19843;51.040;13.782;2022-12-29T05:47:49;99587.06;;;11.01;73.83
33506;BME280;19843;51.040;13.782;2022-12-29T05:50:18;99589.00;;;11.11;73.49
33506;BME280;19843;51.040;13.782;2022-12-29T05:52:46;99592.38;;;11.13;73.30
33506;BME280;19843;51.040;13.782;2022-12-29T05:55:13;99582.88;;;11.20;73.24
33506;BME280;19843;51.040;13.782;2022-12-29T05:57:41;99568.47;;;11.21;72.95
33506;BME280;19843;51.040;13.782;2022-12-29T06:00:09;99573.34;;;11.27;72.38
33506;BME280;19843;51.040;13.782;2022-12-29T06:02:37;99577.31;;;11.33;71.96
33506;BME280;19843;51.040;13.782;2022-12-29T06:05:05;99586.06;;;11.46;71.60
33506;BME280;19843;51.040;13.782;2022-12-29T06:07:34;99592.38;;;11.56;71.20
33506;BME280;19843;51.040;13.782;2022-12-29T06:10:02;99598.38;;;11.48;71.38
33506;BME280;19843;51.040;13.782;2022-12-29T06:12:30;99602.97;;;11.58;70.89
33506;BME280;19843;51.040;13.782;2022-12-29T06:14:57;99596.75;;;11.57;70.92
33506;BME280;19843;51.040;13.782;2022-12-29T06:17:25;99593.22;;;11.57;71.03
33506;BME280;19843;51.040;13.782;2022-12-29T06:19:52;99591.97;;;11.61;71.27
33506;BME280;19843;51.040;13.782;2022-12-29T06:22:19;99590.06;;;11.52;71.84
33506;BME280;19843;51.040;13.782;2022-12-29T06:24:48;99589.84;;;11.43;71.63
33506;BME280;19843;51.040;13.782;2022-12-29T06:27:15;99592.06;;;11.38;71.78
33506;BME280;19843;51.040;13.782;2022-12-29T06:29:43;99595.22;;;11.43;71.73
33506;BME280;19843;51.040;13.782;2022-12-29T06:32:10;99590.69;;;11.44;71.48
33506;BME280;19843;51.040;13.782;2022-12-29T06:34:38;99575.44;;;11.44;71.83
33506;BME280;19843;51.040;13.782;2022-12-29T06:37:05;99582.19;;;11.39;71.58
33506;BME280;19843;51.040;13.782;2022-12-29T06:39:33;99576.88;;;11.48;71.12
33506;BME280;19843;51.040;13.782;2022-12-29T06:42:02;99575.78;;;11.51;70.74
33506;BME280;19843;51.040;13.782;2022-12-29T06:44:30;99577.16;;;11.45;71.11
33506;BME280;19843;51.040;13.782;2022-12-29T06:46:57;99569.84;;;11.47;70.56
33506;BME280;19843;51.040;13.782;2022-12-29T06:49:25;99577.44;;;11.42;70.85
33506;BME280;19843;51.040;13.782;2022-12-29T06:51:52;99579.50;;;11.39;70.66
33506;BME280;19843;51.040;13.782;2022-12-29T06:54:20;99579.50;;;11.39;70.27
33506;BME280;19843;51.040;13.782;2022-12-29T06:56:47;99573.06;;;11.30;70.96
33506;BME280;19843;51.040;13.782;2022-12-29T06:59:16;99581.13;;;11.30;70.50
33506;BME280;19843;51.040;13.782;2022-12-29T07:01:43;99588.63;;;11.15;71.13
33506;BME280;19843;51.040;13.782;2022-12-29T07:04:11;99595.56;;;11.18;70.85
33506;BME280;19843;51.040;13.782;2022-12-29T07:06:38;99583.72;;;11.20;70.50
33506;BME280;19843;51.040;13.782;2022-12-29T07:09:07;99582.75;;;11.10;70.95
33506;BME280;19843;51.040;13.782;2022-12-29T07:11:35;99572.75;;;11.12;70.82
33506;BME280;19843;51.040;13.782;2022-12-29T07:14:03;99575.59;;;11.11;70.74
33506;BME280;19843;51.040;13.782;2022-12-29T07:16:32;99577.28;;;11.12;70.77
33506;BME280;19843;51.040;13.782;2022-12-29T07:19:00;99577.66;;;11.07;70.76
33506;BME280;19843;51.040;13.782;2022-12-29T07:21:28;99584.88;;;10.95;71.43
33506;BME280;19843;51.040;13.782;2022-12-29T07:23:55;99599.78;;;10.88;71.73
33506;BME280;19843;51.040;13.782;2022-12-29T07:26:22;99605.13;;;10.88;71.59
33506;BME280;19843;51.040;13.782;2022-12-29T07:28:50;99594.25;;;11.01;71.52
33506;BME280;19843;51.040;13.782;2022-12-29T07:31:20;99605.50;;;10.95;71.91
33506;BME280;19843;51.040;13.782;2022-12-29T07:33:49;99598.22;;;11.29;70.41
33506;BME280;19843;51.040;13.782;2022-12-29T07:36:17;99605.44;;;11.49;70.05
33506;BME280;19843;51.040;13.782;2022-12-29T07:38:44;99613.97;;;11.55;69.55
33506;BME280;19843;51.040;13.782;2022-12-29T07:41:11;99586.06;;;11.67;69.68
33506;BME280;19843;51.040;13.782;2022-12-29T07:43:39;99593.16;;;11.68;69.52
33506;BME280;19843;51.040;13.782;2022-12-29T07:46:10;99577.56;;;11.62;69.85
33506;BME280;19843;51.040;13.782;2022-12-29T07:48:59;99587.53;;;11.71;69.37
33506;BME280;19843;51.040;13.782;2022-12-29T07:51:28;99582.16;;;11.71;69.37
33506;BME280;19843;51.040;13.782;2022-12-29T07:53:55;99582.94;;;11.62;69.91
33506;BME280;19843;51.040;13.782;2022-12-29T07:56:22;99585.66;;;11.50;70.20
33506;BME280;19843;51.040;13.782;2022-12-29T07:58:50;99596.53;;;11.49;70.44
33506;BME280;19843;51.040;13.782;2022-12-29T08:01:17;99598.72;;;11.55;70.11
33506;BME280;19843;51.040;13.782;2022-12-29T08:03:45;99594.78;;;11.59;69.63
33506;BME280;19843;51.040;13.782;2022-12-29T08:06:20;99592.25;;;11.14;68.74
33506;BME280;19843;51.040;13.782;2022-12-29T08:08:49;99601.94;;;10.94;68.99
33506;BME280;19843;51.040;13.782;2022-12-29T08:11:16;99606.81;;;10.89;69.00
33506;BME280;19843;51.040;13.782;2022-12-29T08:13:43;99613.94;;;10.79;68.93
33506;BME280;19843;51.040;13.782;2022-12-29T08:16:11;99617.84;;;10.63;69.85
33506;BME280;19843;51.040;13.782;2022-12-29T08:18:38;99630.38;;;10.52;70.10
33506;BME280;19843;51.040;13.782;2022-12-29T08:21:06;99629.16;;;10.56;69.65
33506;BME280;19843;51.040;13.782;2022-12-29T08:23:35;99636.72;;;10.62;69.57
33506;BME280;19843;51.040;13.782;2022-12-29T08:26:04;99631.47;;;10.60;69.26
33506;BME280;19843;51.040;13.782;2022-12-29T08:28:32;99633.91;;;10.63;68.97
33506;BME280;19843;51.040;13.782;2022-12-29T08:31:01;99637.81;;;10.59;69.25
33506;BME280;19843;51.040;13.782;2022-12-29T08:33:29;99640.50;;;10.71;69.33
33506;BME280;19843;51.040;13.782;2022-12-29T08:35:59;99634.66;;;10.65;69.46
33506;BME280;19843;51.040;13.782;2022-12-29T08:38:27;99633.56;;;10.68;69.31
33506;BME280;19843;51.040;13.782;2022-12-29T08:41:00;99623.19;;;10.63;69.41
33506;BME280;19843;51.040;13.782;2022-12-29T08:43:28;99634.41;;;10.57;70.01
33506;BME280;19843;51.040;13.782;2022-12-29T08:45:57;99630.97;;;10.55;69.82
33506;BME280;19843;51.040;13.782;2022-12-29T08:48:24;99626.84;;;10.62;69.49
33506;BME280;19843;51.040;13.782;2022-12-29T08:50:52;99624.66;;;10.56;69.57
33506;BME280;19843;51.040;13.782;2022-12-29T08:53:20;99642.91;;;10.51;69.56
33506;BME280;19843;51.040;13.782;2022-12-29T08:55:55;99639.63;;;10.48;69.66
33506;BME280;19843;51.040;13.782;2022-12-29T08:58:31;99632.44;;;10.48;69.63
33506;BME280;19843;51.040;13.782;2022-12-29T09:00:59;99629.16;;;10.56;69.46
33506;BME280;19843;51.040;13.782;2022-12-29T09:03:33;99615.88;;;10.43;69.78
33506;BME280;19843;51.040;13.782;2022-12-29T09:06:21;99602.09;;;10.70;70.52
33506;BME280;19843;51.040;13.782;2022-12-29T09:08:48;99596.78;;;11.14;68.75
33506;BME280;19843;51.040;13.782;2022-12-29T09:11:19;99602.44;;;11.43;68.07
33506;BME280;19843;51.040;13.782;2022-12-29T09:13:49;99597.16;;;11.74;66.60
33506;BME280;19843;51.040;13.782;2022-12-29T09:16:17;99600.97;;;11.92;66.10
33506;BME280;19843;51.040;13.782;2022-12-29T09:18:45;99595.94;;;11.99;66.17
33506;BME280;19843;51.040;13.782;2022-12-29T09:21:13;99595.53;;;12.24;64.59
33506;BME280;19843;51.040;13.782;2022-12-29T09:23:42;99598.88;;;12.38;64.28
33506;BME280;19843;51.040;13.782;2022-12-29T09:26:10;99597.84;;;12.29;64.72
33506;BME280;19843;51.040;13.782;2022-12-29T09:28:37;99597.56;;;12.32;64.52
33506;BME280;19843;51.040;13.782;2022-12-29T09:31:06;99600.13;;;12.33;64.46
33506;BME280;19843;51.040;13.782;2022-12-29T09:33:34;99594.38;;;12.48;64.07
33506;BME280;19843;51.040;13.782;2022-12-29T09:36:02;99600.19;;;12.53;63.83
33506;BME280;19843;51.040;13.782;2022-12-29T09:38:30;99599.03;;;12.46;64.03
33506;BME280;19843;51.040;13.782;2022-12-29T09:41:01;99597.34;;;12.45;63.99
33506;BME280;19843;51.040;13.782;2022-12-29T09:43:49;99609.38;;;12.50;63.81
33506;BME280;19843;51.040;13.782;2022-12-29T09:46:23;99608.34;;;12.42;64.38
33506;BME280;19843;51.040;13.782;2022-12-29T09:49:00;99603.44;;;12.47;63.88
33506;BME280;19843;51.040;13.782;2022-12-29T09:51:32;99605.97;;;12.48;64.31
33506;BME280;19843;51.040;13.782;2022-12-29T09:54:07;99608.97;;;12.55;63.29
33506;BME280;19843;51.040;13.782;2022-12-29T09:57:03;99611.13;;;12.61;62.91
33506;BME280;19843;51.040;13.782;2022-12-29T09:59:38;99602.69;;;12.75;62.58
33506;BME280;19843;51.040;13.782;2022-12-29T10:02:26;99593.75;;;12.65;63.06
33506;BME280;19843;51.040;13.782;2022-12-29T10:04:56;99604.50;;;12.65;62.88
33506;BME280;19843;51.040;13.782;2022-12-29T10:07:30;99604.25;;;12.78;62.52
33506;BME280;19843;51.040;13.782;2022-12-29T10:10:09;99588.00;;;12.89;61.99
33506;BME280;19843;51.040;13.782;2022-12-29T10:12:54;99598.66;;;13.01;61.66
33506;BME280;19843;51.040;13.782;2022-12-29T10:15:43;99594.28;;;13.09;61.24
33506;BME280;19843;51.040;13.782;2022-12-29T10:21:40;99601.34;;;13.01;61.11
33506;BME280;19843;51.040;13.782;2022-12-29T10:24:12;99586.56;;;13.35;59.43
33506;BME280;19843;51.040;13.782;2022-12-29T10:26:41;99599.31;;;13.43;59.46
33506;BME280;19843;51.040;13.782;2022-12-29T10:29:14;99608.38;;;13.71;58.31
33506;BME280;19843;51.040;13.782;2022-12-29T10:31:46;99606.13;;;13.76;58.42
33506;BME280;19843;51.040;13.782;2022-12-29T10:34:20;99586.13;;;13.79;58.31
33506;BME280;19843;51.040;13.782;2022-12-29T10:36:52;99594.34;;;13.77;58.07
33506;BME280;19843;51.040;13.782;2022-12-29T10:39:28;99582.28;;;13.91;57.54
33506;BME280;19843;51.040;13.782;2022-12-29T10:42:03;99588.25;;;13.95;58.43
33506;BME280;19843;51.040;13.782;2022-12-29T10:44:37;99585.78;;;14.11;57.77
33506;BME280;19843;51.040;13.782;2022-12-29T10:47:07;99580.19;;;14.32;56.37
33506;BME280;19843;51.040;13.782;2022-12-29T10:49:40;99576.66;;;14.32;56.67
33506;BME280;19843;51.040;13.782;2022-12-29T10:52:09;99562.34;;;14.31;57.56
33506;BME280;19843;51.040;13.782;2022-12-29T10:54:43;99562.16;;;14.43;56.30
33506;BME280;19843;51.040;13.782;2022-12-29T10:57:15;99551.09;;;14.36;56.97
33506;BME280;19843;51.040;13.782;2022-12-29T10:59:47;99559.03;;;14.75;56.45
33506;BME280;19843;51.040;13.782;2022-12-29T11:02:25;99549.28;;;14.92;56.07
33506;BME280;19843;51.040;13.782;2022-12-29T11:05:02;99548.16;;;14.94;55.67
33506;BME280;19843;51.040;13.782;2022-12-29T11:07:33;99549.06;;;15.03;55.72
33506;BME280;19843;51.040;13.782;2022-12-29T11:10:18;99556.41;;;15.11;55.25
33506;BME280;19843;51.040;13.782;2022-12-29T11:12:55;99556.00;;;15.23;55.66
33506;BME280;19843;51.040;13.782;2022-12-29T11:15:23;99546.16;;;15.32;55.65
33506;BME280;19843;51.040;13.782;2022-12-29T11:17:56;99552.00;;;15.10;55.41
33506;BME280;19843;51.040;13.782;2022-12-29T11:20:29;99554.97;;;14.89;56.03
33506;BME280;19843;51.040;13.782;2022-12-29T11:22:57;99559.19;;;14.73;56.89
33506;BME280;19843;51.040;13.782;2022-12-29T11:25:26;99553.72;;;14.55;58.03
33506;BME280;19843;51.040;13.782;2022-12-29T11:28:00;99545.25;;;14.40;57.54
33506;BME280;19843;51.040;13.782;2022-12-29T11:30:30;99545.66;;;14.46;57.65
33506;BME280;19843;51.040;13.782;2022-12-29T11:32:58;99550.44;;;14.24;58.15
33506;BME280;19843;51.040;13.782;2022-12-29T11:35:34;99555.84;;;14.24;58.27
33506;BME280;19843;51.040;13.782;2022-12-29T11:38:17;99560.63;;;14.30;58.08
33506;BME280;19843;51.040;13.782;2022-12-29T11:40:47;99546.41;;;14.38;57.51
33506;BME280;19843;51.040;13.782;2022-12-29T11:43:23;99549.94;;;14.38;58.15
33506;BME280;19843;51.040;13.782;2022-12-29T11:45:54;99547.00;;;14.32;58.02
33506;BME280;19843;51.040;13.782;2022-12-29T11:48:23;99546.94;;;14.51;57.85
33506;BME280;19843;51.040;13.782;2022-12-29T11:50:57;99533.88;;;14.47;57.49
33506;BME280;19843;51.040;13.782;2022-12-29T11:53:28;99552.31;;;14.51;57.61
33506;BME280;19843;51.040;13.782;2022-12-29T11:56:02;99547.22;;;14.76;57.05
33506;BME280;19843;51.040;13.782;2022-12-29T11:58:35;99537.38;;;14.85;57.07
33506;BME280;19843;51.040;13.782;2022-12-29T12:01:05;99555.38;;;14.66;57.54
33506;BME280;19843;51.040;13.782;2022-12-29T12:03:37;99542.50;;;14.60;57.28
33506;BME280;19843;51.040;13.782;2022-12-29T12:06:12;99542.34;;;14.61;57.84
33506;BME280;19843;51.040;13.782;2022-12-29T12:08:48;99537.25;;;14.49;57.89
33506;BME280;19843;51.040;13.782;2022-12-29T12:11:22;99533.88;;;14.47;57.68
33506;BME280;19843;51.040;13.782;2022-12-29T12:13:56;99532.75;;;14.39;58.06
33506;BME280;19843;51.040;13.782;2022-12-29T12:16:29;99537.16;;;14.40;57.76
33506;BME280;19843;51.040;13.782;2022-12-29T12:19:02;99537.75;;;14.34;58.15
33506;BME280;19843;51.040;13.782;2022-12-29T12:21:38;99534.97;;;14.26;58.22
33506;BME280;19843;51.040;13.782;2022-12-29T12:24:35;99533.38;;;14.33;57.83
33506;BME280;19843;51.040;13.782;2022-12-29T12:27:11;99534.75;;;14.37;57.64
33506;BME280;19843;51.040;13.782;2022-12-29T12:29:43;99524.72;;;14.30;57.88
33506;BME280;19843;51.040;13.782;2022-12-29T12:32:16;99531.13;;;14.29;57.69
33506;BME280;19843;51.040;13.782;2022-12-29T12:34:45;99525.38;;;14.41;57.06
33506;BME280;19843;51.040;13.782;2022-12-29T12:37:57;99521.97;;;14.39;58.10
33506;BME280;19843;51.040;13.782;2022-12-29T12:40:50;99521.06;;;14.49;57.12
33506;BME280;19843;51.040;13.782;2022-12-29T12:43:33;99511.28;;;14.48;57.17
33506;BME280;19843;51.040;13.782;2022-12-29T12:46:11;99514.00;;;14.48;57.28
33506;BME280;19843;51.040;13.782;2022-12-29T12:49:00;99513.84;;;14.49;57.40
33506;BME280;19843;51.040;13.782;2022-12-29T12:51:40;99508.88;;;14.54;58.09
33506;BME280;19843;51.040;13.782;2022-12-29T12:54:24;99512.44;;;14.45;57.18
33506;BME280;19843;51.040;13.782;2022-12-29T12:57:05;99510.28;;;14.49;56.87
33506;BME280;19843;51.040;13.782;2022-12-29T12:59:49;99504.22;;;14.47;56.38
33506;BME280;19843;51.040;13.782;2022-12-29T13:02:34;99505.31;;;14.54;56.69
33506;BME280;19843;51.040;13.782;2022-12-29T13:05:21;99498.78;;;14.56;56.09
33506;BME280;19843;51.040;13.782;2022-12-29T13:08:06;99505.97;;;14.66;56.35
33506;BME280;19843;51.040;13.782;2022-12-29T13:10:49;99498.00;;;14.74;56.24
33506;BME280;19843;51.040;13.782;2022-12-29T13:13:39;99497.56;;;14.69;56.11
33506;BME280;19843;51.040;13.782;2022-12-29T13:16:17;99503.31;;;14.83;56.36
33506;BME280;19843;51.040;13.782;2022-12-29T13:18:55;99489.06;;;14.91;55.61
33506;BME280;19843;51.040;13.782;2022-12-29T13:21:47;99509.94;;;14.89;55.55